Time;durP1;ratioP1;P1;durP2;ratioP2;P2;SDS_P1;SDS_P2;PMS_P1;PMS_P2;Temp;Humidity;BMP_temperature;BMP_pressure;BME280_temperature;BME280_humidity;BME280_pressure;Samples;Min_cycle;Max_cycle;Signal;HPM_P1;HPM_P2
2021/05/11 00:01:23;;;;;;;16.00;13.30;;;19.20;63.10;;;;;;5038848;28;20076;-59
2021/05/11 00:03:49;;;;;;;13.77;11.50;;;19.20;63.10;;;;;;5040895;28;20040;-59
2021/05/11 00:06:14;;;;;;;11.73;10.40;;;19.30;62.50;;;;;;5035560;28;20032;-59
2021/05/11 00:08:40;;;;;;;11.77;10.15;;;19.20;62.00;;;;;;5038224;28;20029;-60
2021/05/11 00:11:06;;;;;;;10.90;9.48;;;19.30;61.30;;;;;;5031597;28;20037;-60
2021/05/11 00:14:14;;;;;;;13.98;9.35;;;19.30;60.80;;;;;;5037614;28;20113;-60
2021/05/11 00:16:40;;;;;;;9.85;7.10;;;19.40;60.50;;;;;;5005255;28;20049;-59
2021/05/11 00:19:09;;;;;;;9.57;6.22;;;19.30;59.20;;;;;;5045835;28;20033;-60
2021/05/11 00:21:34;;;;;;;6.13;5.50;;;19.20;58.70;;;;;;5039349;28;20041;-59
2021/05/11 00:24:00;;;;;;;5.28;4.78;;;19.20;58.20;;;;;;5040111;28;20498;-59
2021/05/11 00:26:26;;;;;;;8.07;5.45;;;19.20;58.20;;;;;;5033434;28;20063;-60
2021/05/11 00:28:51;;;;;;;8.23;5.38;;;19.30;58.00;;;;;;5035464;28;20036;-59
2021/05/11 00:31:17;;;;;;;6.43;4.70;;;19.30;57.70;;;;;;5036956;28;20041;-59
2021/05/11 00:33:43;;;;;;;9.00;4.85;;;19.40;57.70;;;;;;5039406;28;20545;-59
2021/05/11 00:36:09;;;;;;;6.03;4.53;;;19.30;57.10;;;;;;5044743;28;20069;-59
2021/05/11 00:38:34;;;;;;;6.07;4.22;;;19.30;56.90;;;;;;5048148;28;20037;-59
2021/05/11 00:41:00;;;;;;;10.00;4.85;;;19.30;56.70;;;;;;5038942;28;20091;-59
2021/05/11 00:43:26;;;;;;;7.85;3.92;;;19.30;56.40;;;;;;5039599;28;20042;-58
2021/05/11 00:45:51;;;;;;;6.95;3.75;;;19.20;56.10;;;;;;5034846;28;20041;-59
2021/05/11 00:48:17;;;;;;;7.15;4.10;;;19.20;56.30;;;;;;5038871;28;20083;-59
2021/05/11 00:50:43;;;;;;;4.75;4.30;;;19.20;56.00;;;;;;5041222;28;20032;-59
2021/05/11 00:53:09;;;;;;;8.60;4.30;;;19.20;55.70;;;;;;5041852;28;20040;-59
2021/05/11 00:55:34;;;;;;;7.97;4.28;;;19.20;55.30;;;;;;5043506;28;20080;-58
2021/05/11 00:58:00;;;;;;;9.98;4.53;;;19.20;55.50;;;;;;5042483;28;20045;-59
2021/05/11 01:00:26;;;;;;;6.75;4.13;;;19.20;55.50;;;;;;5038150;28;20079;-59
2021/05/11 01:02:52;;;;;;;8.00;3.70;;;19.20;54.80;;;;;;5039884;28;20045;-59
2021/05/11 01:05:18;;;;;;;10.82;5.00;;;19.10;55.30;;;;;;5041976;28;20037;-59
2021/05/11 01:07:48;;;;;;;5.25;3.83;;;19.20;55.40;;;;;;5036176;28;20045;-58
2021/05/11 01:10:13;;;;;;;5.75;4.00;;;19.20;59.10;;;;;;5059203;28;20360;-59
2021/05/11 01:12:39;;;;;;;7.55;4.20;;;19.20;55.60;;;;;;5035568;28;20041;-60
2021/05/11 01:15:06;;;;;;;8.95;4.13;;;19.20;55.40;;;;;;5046087;28;20391;-60
2021/05/11 01:17:35;;;;;;;6.82;4.53;;;19.10;55.10;;;;;;5037136;28;20524;-60
2021/05/11 01:20:04;;;;;;;13.35;6.25;;;;;;;;;;5037097;28;20037;-61
2021/05/11 01:25:15;;;;;;;7.13;6.05;;;18.80;64.60;;;;;;5035204;28;20506;-60
2021/05/11 02:24:27;;;;;;;9.73;6.32;;;18.50;65.90;;;;;;5036726;28;20087;-60
2021/05/11 02:26:53;;;;;;;11.23;5.35;;;18.50;66.40;;;;;;5041197;28;20033;-61
2021/05/11 02:29:18;;;;;;;10.30;5.75;;;18.40;64.90;;;;;;5052350;28;20043;-60
2021/05/11 02:31:44;;;;;;;8.00;5.20;;;18.40;66.30;;;;;;5041835;28;20045;-60
2021/05/11 02:34:10;;;;;;;9.80;5.85;;;18.30;65.90;;;;;;5037221;28;20084;-60
2021/05/11 02:36:35;;;;;;;8.02;5.68;;;18.20;66.80;;;;;;5037679;28;20045;-60
2021/05/11 02:39:01;;;;;;;7.82;5.45;;;18.00;66.80;;;;;;5038684;28;20401;-60
2021/05/11 02:42:19;;;;;;;8.40;5.40;;;18.00;66.10;;;;;;5034766;28;20359;-60
2021/05/11 02:44:47;;;;;;;9.98;5.32;;;18.10;69.10;;;;;;4995642;28;20029;-60
2021/05/11 02:47:14;;;;;;;8.00;5.32;;;18.10;67.20;;;;;;5036692;28;20087;-60
2021/05/11 02:49:48;;;;;;;11.43;6.57;;;18.00;66.80;;;;;;5038881;28;20045;-60
2021/05/11 02:52:14;;;;;;;6.90;6.00;;;17.90;67.70;;;;;;5038373;28;20091;-60
2021/05/11 02:54:40;;;;;;;8.35;5.93;;;17.90;67.80;;;;;;5034304;28;20037;-60
2021/05/11 02:57:06;;;;;;;7.38;5.97;;;17.80;68.70;;;;;;5034267;28;20037;-60
2021/05/11 02:59:32;;;;;;;11.90;6.18;;;17.80;68.50;;;;;;5041666;28;20103;-60
2021/05/11 03:01:58;;;;;;;7.28;6.20;;;17.60;68.40;;;;;;5034217;28;20133;-60
2021/05/11 03:04:24;;;;;;;7.43;5.57;;;17.60;69.10;;;;;;5053726;28;20128;-60
2021/05/11 03:06:57;;;;;;;7.07;5.90;;;17.60;69.50;;;;;;5032413;28;20044;-61
2021/05/11 03:09:24;;;;;;;8.48;5.85;;;17.50;69.60;;;;;;5056240;28;20045;-60
2021/05/11 03:11:50;;;;;;;9.73;6.10;;;17.50;72.70;;;;;;5035231;28;20037;-60
2021/05/11 03:14:16;;;;;;;10.50;6.43;;;;;;;;;;5039320;28;20040;-61
2021/05/11 03:16:43;;;;;;;8.38;6.50;;;17.10;70.10;;;;;;5040107;28;20041;-61
2021/05/11 03:19:08;;;;;;;7.45;6.35;;;17.20;70.80;;;;;;5045258;28;20112;-60
2021/05/11 03:21:34;;;;;;;9.57;5.97;;;17.20;70.70;;;;;;5039183;28;20132;-61
2021/05/11 03:24:00;;;;;;;9.93;6.60;;;17.20;70.40;;;;;;5040243;28;20053;-60
2021/05/11 03:29:48;;;;;;;7.78;6.97;;;17.20;72.20;;;;;;4990583;28;20068;-60
2021/05/11 03:32:14;;;;;;;9.10;6.60;;;17.10;72.30;;;;;;5037822;28;20274;-60
2021/05/11 03:34:39;;;;;;;9.80;7.10;;;17.00;72.60;;;;;;5038514;28;20182;-60
2021/05/11 03:37:06;;;;;;;7.97;7.18;;;17.10;73.70;;;;;;5030540;28;20090;-60
2021/05/11 03:39:40;;;;;;;8.82;6.47;;;17.00;73.20;;;;;;5040354;28;20414;-60
2021/05/11 03:42:14;;;;;;;8.05;7.18;;;16.90;74.10;;;;;;5034717;28;20037;-61
2021/05/11 03:44:42;;;;;;;;;;;16.70;74.60;;;;;;5037035;28;20067;-61
2021/05/11 03:47:08;;;;;;;8.38;7.15;;;16.70;76.00;;;;;;5039452;28;19913;-60
2021/05/11 03:49:33;;;;;;;9.40;7.78;;;16.50;74.90;;;;;;5032704;28;20572;-60
2021/05/11 03:51:59;;;;;;;7.85;7.07;;;16.60;76.70;;;;;;5035523;28;20128;-60
2021/05/11 03:54:25;;;;;;;8.95;8.05;;;16.70;75.00;;;;;;5032058;28;20487;-60
2021/05/11 03:56:51;;;;;;;10.35;7.32;;;16.80;75.00;;;;;;5045123;28;20029;-60
2021/05/11 03:59:17;;;;;;;7.72;6.93;;;16.70;75.40;;;;;;5040811;28;20744;-60
2021/05/11 04:01:43;;;;;;;8.93;7.88;;;16.70;75.30;;;;;;5036977;28;20033;-60
2021/05/11 04:04:08;;;;;;;9.13;7.72;;;16.70;75.40;;;;;;5036552;28;20518;-60
2021/05/11 04:06:34;;;;;;;11.32;7.45;;;16.50;76.10;;;;;;5048204;28;20120;-60
2021/05/11 04:12:14;;;;;;;8.10;7.22;;;16.50;76.20;;;;;;4982798;28;20132;-61
2021/05/11 04:17:24;;;;;;;9.05;8.15;;;16.40;77.00;;;;;;5018049;28;20053;-61
2021/05/11 04:19:50;;;;;;;8.27;7.47;;;16.30;76.50;;;;;;5042111;28;20044;-61
2021/05/11 04:22:15;;;;;;;9.00;7.25;;;16.40;77.50;;;;;;5045633;28;20052;-61
2021/05/11 04:24:41;;;;;;;10.23;7.68;;;16.30;78.10;;;;;;5038599;28;20070;-60
2021/05/11 04:27:07;;;;;;;8.18;7.38;;;16.30;78.00;;;;;;5045222;28;20055;-61
2021/05/11 04:29:34;;;;;;;10.13;7.93;;;16.40;78.00;;;;;;5045233;28;20093;-61
2021/05/11 04:32:00;;;;;;;10.82;8.30;;;16.30;78.50;;;;;;5042586;28;20039;-61
2021/05/11 04:34:25;;;;;;;8.52;7.60;;;16.30;78.00;;;;;;5043461;28;20049;-61
2021/05/11 04:36:51;;;;;;;11.77;8.30;;;16.40;78.00;;;;;;5044948;28;20052;-61
2021/05/11 04:39:17;;;;;;;9.90;8.90;;;16.30;77.90;;;;;;5038693;28;20037;-61
2021/05/11 04:41:43;;;;;;;10.27;7.82;;;16.30;78.00;;;;;;5039201;28;20045;-60
2021/05/11 04:44:09;;;;;;;10.48;7.97;;;16.20;78.80;;;;;;5062183;28;20032;-61
2021/05/11 04:47:21;;;;;;;11.20;8.10;;;16.30;78.80;;;;;;5053763;28;20044;-61
2021/05/11 04:49:25;;;;;;;9.00;8.00;;;16.20;78.60;;;;;;5020321;28;20038;-61
2021/05/11 04:51:50;;;;;;;8.32;7.50;;;16.30;78.30;;;;;;5052413;28;20110;-60
2021/05/11 04:54:16;;;;;;;8.77;7.45;;;16.30;79.00;;;;;;5041450;28;20523;-61
2021/05/11 04:56:42;;;;;;;8.70;7.80;;;16.20;78.60;;;;;;5038023;28;20356;-61
2021/05/11 04:59:08;;;;;;;10.75;8.02;;;16.10;79.30;;;;;;5037988;28;20037;-61
2021/05/11 05:01:34;;;;;;;8.35;7.15;;;16.10;79.40;;;;;;5038645;28;20049;-61
2021/05/11 05:04:00;;;;;;;8.85;7.95;;;16.20;79.40;;;;;;5055191;28;20037;-61
2021/05/11 05:06:26;;;;;;;10.95;8.05;;;16.10;79.40;;;;;;5051285;28;20064;-61
2021/05/11 05:08:52;;;;;;;8.85;7.68;;;16.20;80.00;;;;;;5041920;28;20033;-61
2021/05/11 05:11:17;;;;;;;9.85;8.15;;;16.00;79.30;;;;;;5038297;28;20072;-61
2021/05/11 05:13:44;;;;;;;8.85;7.90;;;16.10;79.60;;;;;;5037089;28;20400;-61
2021/05/11 05:16:10;;;;;;;9.65;8.02;;;16.00;80.30;;;;;;5040033;28;20048;-60
2021/05/11 05:18:36;;;;;;;9.35;8.50;;;16.00;79.80;;;;;;5045036;28;20033;-61
2021/05/11 05:21:06;;;;;;;12.88;8.27;;;16.20;80.00;;;;;;5039883;28;20043;-61
2021/05/11 05:23:38;;;;;;;11.25;7.63;;;16.10;79.70;;;;;;5044317;28;20060;-60
2021/05/11 05:26:06;;;;;;;9.00;8.10;;;16.00;80.90;;;;;;5036734;28;20080;-61
2021/05/11 05:28:38;;;;;;;11.18;8.07;;;15.90;81.70;;;;;;5040742;28;20041;-59
2021/05/11 05:31:05;;;;;;;10.65;7.43;;;15.90;81.80;;;;;;5040601;28;20385;-59
2021/05/11 05:33:32;;;;;;;12.20;7.80;;;15.90;81.50;;;;;;5037068;28;20390;-59
2021/05/11 05:35:59;;;;;;;8.30;7.13;;;15.90;81.50;;;;;;5040476;28;20618;-59
2021/05/11 05:38:26;;;;;;;9.15;7.05;;;15.90;83.00;;;;;;5036235;28;20071;-60
2021/05/11 05:41:03;;;;;;;9.05;7.40;;;15.80;81.80;;;;;;5043629;28;20025;-60
2021/05/11 05:43:29;;;;;;;10.07;7.80;;;15.80;82.00;;;;;;5039981;28;21665;-60
2021/05/11 05:45:56;;;;;;;9.43;7.93;;;15.80;81.80;;;;;;5041781;28;20033;-60
2021/05/11 05:48:21;;;;;;;8.70;7.35;;;15.70;82.20;;;;;;5035580;28;20506;-60
2021/05/11 05:50:52;;;;;;;8.35;7.28;;;15.90;82.00;;;;;;5039343;28;20037;-60
2021/05/11 05:53:31;;;;;;;8.80;7.28;;;15.90;82.30;;;;;;5038524;28;20037;-60
2021/05/11 05:55:57;;;;;;;9.68;7.57;;;16.00;82.70;;;;;;5043151;28;20075;-60
2021/05/11 05:58:26;;;;;;;9.65;7.13;;;16.00;82.20;;;;;;5035903;28;20569;-60
2021/05/11 06:01:01;;;;;;;10.57;7.35;;;15.80;83.10;;;;;;5042431;28;20440;-60
2021/05/11 06:06:11;;;;;;;10.82;8.27;;;15.70;83.90;;;;;;5045600;28;20063;-60
2021/05/11 06:08:41;;;;;;;8.80;8.00;;;15.80;85.20;;;;;;5036632;28;20044;-60
2021/05/11 06:19:15;;;;;;;12.20;7.18;;;15.90;83.90;;;;;;5033787;28;20089;-61
2021/05/11 06:21:41;;;;;;;7.97;6.53;;;15.90;83.20;;;;;;5035648;28;20061;-60
2021/05/11 06:24:08;;;;;;;7.65;6.68;;;15.90;82.80;;;;;;5031316;28;20049;-61
2021/05/11 06:26:34;;;;;;;9.45;6.55;;;15.90;82.40;;;;;;5040740;28;20540;-61
2021/05/11 06:29:01;;;;;;;10.13;6.97;;;15.90;82.50;;;;;;5032252;28;20028;-60
2021/05/11 06:31:27;;;;;;;8.75;6.40;;;15.80;83.40;;;;;;5036397;28;20041;-61
2021/05/11 06:33:53;;;;;;;10.18;6.45;;;15.70;82.60;;;;;;5036632;28;20119;-60
2021/05/11 06:36:19;;;;;;;7.18;5.90;;;15.70;82.60;;;;;;5040074;28;20037;-60
2021/05/11 06:38:45;;;;;;;8.43;6.15;;;15.90;82.00;;;;;;5036470;28;20573;-60
2021/05/11 06:41:11;;;;;;;12.10;6.40;;;16.00;82.20;;;;;;5037832;28;20048;-60
2021/05/11 06:43:40;;;;;;;9.07;6.60;;;15.90;82.00;;;;;;5035037;28;20034;-60
2021/05/11 06:49:02;;;;;;;11.07;6.45;;;15.90;82.40;;;;;;5037047;28;20099;-60
2021/05/11 06:53:54;;;;;;;9.20;5.97;;;15.90;82.60;;;;;;5039138;28;20323;-60
2021/05/11 06:56:22;;;;;;;8.95;7.15;;;15.90;82.00;;;;;;5035823;28;20682;-60
2021/05/11 06:58:48;;;;;;;7.07;5.65;;;15.80;82.90;;;;;;5040727;28;20048;-60
2021/05/11 07:01:16;;;;;;;11.25;7.05;;;15.90;82.70;;;;;;5051839;28;20090;-60
2021/05/11 07:03:41;;;;;;;9.38;7.05;;;15.90;83.20;;;;;;5037286;28;20140;-60
2021/05/11 07:06:07;;;;;;;10.43;7.15;;;15.90;83.60;;;;;;5039610;28;20129;-59
2021/05/11 07:11:07;;;;;;;8.60;5.90;;;16.00;82.90;;;;;;5031346;28;20037;-60
2021/05/11 07:13:34;;;;;;;7.80;5.37;;;15.90;83.00;;;;;;5041571;28;20044;-59
2021/05/11 07:15:59;;;;;;;7.22;6.18;;;15.80;83.30;;;;;;5032844;28;20517;-60
2021/05/11 07:18:27;;;;;;;8.48;7.00;;;15.80;83.40;;;;;;5038848;28;20037;-61
2021/05/11 07:20:58;;;;;;;8.40;6.55;;;15.90;84.20;;;;;;5034647;28;22384;-61
2021/05/11 07:23:27;;;;;;;10.13;6.25;;;16.00;84.90;;;;;;5039603;28;20033;-61
2021/05/11 07:31:06;;;;;;;8.50;6.10;;;16.10;83.90;;;;;;5036747;28;20067;-59
2021/05/11 07:33:35;;;;;;;8.18;6.72;;;16.10;84.10;;;;;;5038842;28;20552;-60
2021/05/11 07:36:01;;;;;;;9.25;7.07;;;16.10;84.20;;;;;;5037403;28;20053;-60
2021/05/11 07:38:27;;;;;;;14.05;6.90;;;16.10;83.90;;;;;;5033480;28;20497;-60
2021/05/11 07:40:53;;;;;;;9.80;8.13;;;15.90;83.40;;;;;;5039890;28;20379;-60
2021/05/11 07:43:21;;;;;;;6.78;6.07;;;16.00;83.70;;;;;;5037755;28;20036;-59
2021/05/11 08:17:38;;;;;;;10.40;8.90;;;16.40;85.00;;;;;;5041321;28;20375;-60
2021/05/11 08:28:08;;;;;;;11.15;7.97;;;16.30;86.60;;;;;;5036660;28;20047;-60
2021/05/11 08:30:34;;;;;;;11.20;7.55;;;16.30;87.50;;;;;;5035575;28;20065;-61
2021/05/11 08:33:00;;;;;;;9.85;8.63;;;16.40;86.90;;;;;;5038558;28;20087;-61
2021/05/11 08:35:25;;;;;;;14.60;7.38;;;16.50;87.30;;;;;;5051422;28;20072;-61
2021/05/11 08:37:51;;;;;;;11.20;8.30;;;16.40;90.00;;;;;;5034179;28;20132;-61
2021/05/11 08:40:17;;;;;;;10.07;7.72;;;16.40;90.70;;;;;;5023843;28;20045;-60
2021/05/11 08:42:42;;;;;;;19.75;8.40;;;16.40;90.50;;;;;;5038159;28;20140;-60
2021/05/11 08:45:10;;;;;;;10.65;7.93;;;16.30;90.00;;;;;;5030159;28;20079;-60
2021/05/11 08:47:49;;;;;;;14.77;8.60;;;16.40;89.40;;;;;;5038460;28;20082;-60
2021/05/11 08:50:24;;;;;;;10.13;7.22;;;16.40;90.30;;;;;;5034911;28;20037;-60
2021/05/11 08:53:09;;;;;;;12.20;8.25;;;16.40;90.30;;;;;;5044102;28;20041;-60
2021/05/11 09:28:06;;;;;;;19.77;9.00;;;16.50;92.10;;;;;;4997370;28;20044;-60
2021/05/11 09:33:34;;;;;;;13.02;7.85;;;16.40;92.50;;;;;;5041995;28;20035;-60
2021/05/11 10:43:47;;;;;;;10.15;8.32;;;16.60;95.60;;;;;;5037910;28;20045;-60
2021/05/11 10:48:32;;;;;;;11.15;8.63;;;16.30;96.20;;;;;;5038822;28;20037;-60
2021/05/11 10:51:02;;;;;;;9.23;8.32;;;16.30;97.70;;;;;;5010796;28;20060;-59
2021/05/11 10:53:46;;;;;;;11.13;8.85;;;16.30;95.80;;;;;;5038600;28;20033;-60
2021/05/11 10:56:39;;;;;;;15.07;11.18;;;16.40;97.60;;;;;;5046471;28;20537;-60
2021/05/11 11:02:03;;;;;;;15.77;12.18;;;16.30;95.60;;;;;;5038214;28;20463;-62
2021/05/11 11:04:33;;;;;;;11.07;10.07;;;16.40;95.50;;;;;;5030317;28;20076;-61
2021/05/11 11:06:59;;;;;;;10.10;8.93;;;16.30;94.80;;;;;;5038034;28;20045;-61
2021/05/11 11:09:26;;;;;;;13.85;10.70;;;16.50;94.30;;;;;;5032281;28;20510;-61
2021/05/11 11:11:52;;;;;;;9.90;8.90;;;16.60;94.50;;;;;;5039590;28;20110;-61
2021/05/11 11:14:19;;;;;;;11.20;9.43;;;16.60;94.60;;;;;;5027991;28;20045;-61
2021/05/11 11:16:45;;;;;;;11.10;8.70;;;16.50;94.30;;;;;;5053347;28;20089;-61
2021/05/11 11:19:12;;;;;;;10.32;7.97;;;16.60;94.50;;;;;;5042824;28;20029;-61
2021/05/11 11:24:27;;;;;;;13.88;8.50;;;16.50;94.70;;;;;;5036067;28;20404;-61
2021/05/11 11:26:54;;;;;;;10.95;9.68;;;16.60;94.70;;;;;;5036461;28;20025;-61
2021/05/11 11:29:20;;;;;;;13.40;10.93;;;16.60;94.10;;;;;;5038428;28;20156;-61
2021/05/11 11:31:47;;;;;;;60.08;17.92;;;16.70;94.20;;;;;;5029712;28;20814;-61
2021/05/11 11:34:19;;;;;;;47.50;12.75;;;16.70;94.80;;;;;;5055691;28;20124;-61
2021/05/11 11:36:58;;;;;;;22.05;11.05;;;16.60;95.00;;;;;;5032614;28;20100;-61
2021/05/11 11:39:28;;;;;;;15.30;10.70;;;16.60;95.70;;;;;;5001419;28;20396;-61
2021/05/11 11:41:56;;;;;;;11.05;9.45;;;16.50;95.70;;;;;;5036576;28;20037;-61
2021/05/11 11:44:24;;;;;;;10.85;8.77;;;16.60;96.30;;;;;;5029836;28;20099;-61
2021/05/11 11:47:01;;;;;;;9.85;8.48;;;16.60;96.60;;;;;;5033898;28;20040;-61
2021/05/11 11:49:33;;;;;;;10.20;9.15;;;16.60;97.50;;;;;;5035936;28;20036;-61
2021/05/11 11:55:39;;;;;;;9.90;7.75;;;16.60;96.70;;;;;;5035842;28;20410;-61
2021/05/11 11:57:54;;;;;;;8.90;7.63;;;16.50;96.60;;;;;;5023754;28;20099;-61
2021/05/11 12:00:24;;;;;;;14.07;8.02;;;16.60;95.70;;;;;;5049111;28;20030;-61
2021/05/11 12:02:59;;;;;;;11.70;8.07;;;16.60;95.70;;;;;;5036073;28;20033;-61
2021/05/11 12:05:29;;;;;;;12.30;8.27;;;16.70;96.10;;;;;;5044104;28;20075;-61
2021/05/11 12:10:30;;;;;;;7.75;6.95;;;16.40;96.10;;;;;;5037802;28;20045;-61
2021/05/11 12:12:57;;;;;;;9.88;7.95;;;16.50;96.20;;;;;;5036490;28;20060;-61
2021/05/11 12:16:28;;;;;;;15.77;8.43;;;16.50;95.80;;;;;;5054880;28;20607;-60
2021/05/11 12:19:06;;;;;;;10.43;7.55;;;16.50;96.20;;;;;;4950627;28;20077;-60
2021/05/11 12:21:34;;;;;;;11.82;8.10;;;16.40;97.40;;;;;;5013297;28;20037;-60
2021/05/11 12:24:12;;;;;;;10.80;8.20;;;16.30;96.80;;;;;;5028159;28;20041;-60
2021/05/11 12:26:44;;;;;;;9.43;7.60;;;16.40;97.30;;;;;;5040569;28;20065;-61
2021/05/11 12:29:20;;;;;;;7.93;7.13;;;16.40;96.40;;;;;;5037097;28;20045;-60
2021/05/11 12:31:49;;;;;;;7.60;6.72;;;16.40;97.70;;;;;;5041364;28;20566;-60
2021/05/11 12:34:24;;;;;;;9.68;6.13;;;16.40;99.90;;;;;;5040049;28;20425;-61
2021/05/11 12:36:59;;;;;;;7.28;6.05;;;16.30;99.90;;;;;;5040445;28;20042;-60
2021/05/11 12:39:40;;;;;;;8.55;7.40;;;16.10;99.90;;;;;;5037303;28;20042;-60
2021/05/11 12:42:42;;;;;;;10.25;6.60;;;16.20;99.90;;;;;;5042646;28;20040;-60
2021/05/11 12:45:15;;;;;;;6.97;6.18;;;16.20;99.90;;;;;;5000180;28;20041;-60
2021/05/11 12:47:52;;;;;;;7.97;6.50;;;16.30;99.90;;;;;;5044752;28;20076;-61
2021/05/11 12:50:28;;;;;;;8.98;6.18;;;16.30;99.90;;;;;;5037024;28;20036;-59
2021/05/11 12:53:01;;;;;;;8.68;6.03;;;16.30;99.90;;;;;;5039959;28;20228;-59
2021/05/11 13:04:50;;;;;;;8.57;5.25;;;16.20;99.90;;;;;;5012238;28;20534;-59
2021/05/11 13:15:43;;;;;;;10.20;5.22;;;16.40;99.60;;;;;;5032685;28;20171;-61
2021/05/11 13:26:26;;;;;;;9.23;4.30;;;16.30;99.20;;;;;;5038127;28;20513;-60
2021/05/11 13:29:04;;;;;;;8.95;4.13;;;16.40;99.40;;;;;;5038446;28;20283;-60
2021/05/11 13:31:44;;;;;;;6.47;4.47;;;16.40;99.00;;;;;;5034133;28;20071;-59
2021/05/11 13:36:40;;;;;;;9.05;4.53;;;16.30;99.00;;;;;;5032210;28;20053;-59
2021/05/11 13:39:08;;;;;;;5.50;4.25;;;16.30;99.20;;;;;;5042325;28;20044;-59
2021/05/11 13:41:34;;;;;;;5.30;4.22;;;16.30;99.00;;;;;;5032585;28;20035;-59
2021/05/11 13:44:00;;;;;;;4.97;4.10;;;16.40;98.60;;;;;;5041452;28;20033;-59
2021/05/11 13:46:26;;;;;;;6.47;4.35;;;16.40;99.00;;;;;;5036692;28;20044;-59
2021/05/11 13:48:52;;;;;;;6.50;4.88;;;16.30;99.00;;;;;;5041334;28;20033;-59
2021/05/11 13:51:18;;;;;;;8.60;4.65;;;16.20;99.50;;;;;;5034766;28;20033;-60
2021/05/11 13:54:08;;;;;;;8.10;4.50;;;16.30;99.70;;;;;;5044084;28;20399;-60
2021/05/11 13:56:48;;;;;;;5.68;4.53;;;16.40;99.50;;;;;;5000313;28;20126;-60
2021/05/11 14:04:27;;;;;;;6.75;4.88;;;16.50;99.20;;;;;;5040184;28;20098;-60
2021/05/11 14:06:53;;;;;;;6.70;5.18;;;16.40;99.10;;;;;;5035386;28;20494;-60
2021/05/11 14:09:18;;;;;;;8.70;5.00;;;16.50;99.30;;;;;;5043140;28;20115;-60
2021/05/11 14:11:45;;;;;;;8.30;4.93;;;16.60;98.50;;;;;;5055175;28;20077;-60
2021/05/11 14:14:11;;;;;;;6.22;4.35;;;16.50;98.80;;;;;;5039557;28;20037;-60
2021/05/11 14:16:38;;;;;;;5.95;4.88;;;16.60;99.20;;;;;;5037484;28;20045;-60
2021/05/11 14:19:04;;;;;;;7.28;4.50;;;16.60;98.60;;;;;;5041241;28;20558;-60
2021/05/11 14:21:30;;;;;;;5.70;5.20;;;16.40;98.40;;;;;;5040854;28;20157;-60
2021/05/11 14:23:56;;;;;;;5.05;4.47;;;16.50;98.70;;;;;;5035472;28;20501;-60
2021/05/11 14:26:26;;;;;;;4.93;4.22;;;16.60;98.70;;;;;;5038773;28;20057;-60
2021/05/11 14:28:52;;;;;;;8.23;5.13;;;16.50;98.40;;;;;;5033638;28;20111;-60
2021/05/11 14:31:19;;;;;;;4.93;4.45;;;16.70;98.50;;;;;;5040857;28;20117;-61
2021/05/11 14:33:44;;;;;;;5.45;4.70;;;16.50;97.80;;;;;;5038564;28;20118;-60
2021/05/11 14:36:10;;;;;;;7.75;5.03;;;16.50;98.70;;;;;;5037543;28;20085;-59
2021/05/11 14:38:37;;;;;;;8.55;4.38;;;16.40;98.30;;;;;;5038914;28;20033;-60
2021/05/11 14:41:04;;;;;;;6.05;4.68;;;16.50;98.10;;;;;;5054084;28;20048;-59
2021/05/11 14:43:34;;;;;;;5.15;4.68;;;16.60;98.30;;;;;;5039112;28;20037;-60
2021/05/11 14:46:02;;;;;;;6.40;4.60;;;16.70;97.90;;;;;;5039410;28;20059;-59
2021/05/11 14:48:29;;;;;;;6.40;4.97;;;16.70;97.50;;;;;;5049046;28;20107;-60
2021/05/11 14:50:56;;;;;;;4.90;4.40;;;16.80;97.70;;;;;;5038775;28;20033;-59
2021/05/11 14:53:22;;;;;;;5.82;4.97;;;16.70;97.60;;;;;;5038957;28;20036;-60
2021/05/11 14:55:48;;;;;;;5.65;4.63;;;16.80;97.10;;;;;;5054631;28;20514;-60
2021/05/11 14:58:14;;;;;;;7.75;5.47;;;16.80;97.00;;;;;;5038216;28;20029;-60
2021/05/11 15:00:39;;;;;;;6.93;5.50;;;16.90;97.30;;;;;;5038238;28;20033;-60
2021/05/11 15:03:05;;;;;;;7.38;6.32;;;16.90;97.50;;;;;;5037885;28;20135;-60
2021/05/11 15:05:31;;;;;;;9.50;5.82;;;16.90;97.20;;;;;;5029486;28;20037;-61
2021/05/11 15:07:57;;;;;;;7.70;6.13;;;16.90;97.00;;;;;;5037430;28;20124;-60
2021/05/11 15:10:22;;;;;;;9.18;5.50;;;16.90;96.70;;;;;;5030813;28;20116;-60
2021/05/11 15:12:50;;;;;;;7.00;5.28;;;16.90;96.50;;;;;;5043818;28;20038;-59
2021/05/11 15:15:19;;;;;;;5.90;5.30;;;16.90;97.20;;;;;;5033277;28;20128;-60
2021/05/11 15:20:15;;;;;;;5.63;4.88;;;17.00;97.20;;;;;;5035309;28;20038;-60
2021/05/11 15:22:42;;;;;;;7.38;5.07;;;16.80;96.90;;;;;;5056552;28;20029;-60
2021/05/11 15:25:08;;;;;;;7.32;4.82;;;16.80;97.10;;;;;;5036859;28;20040;-60
2021/05/11 15:27:35;;;;;;;5.90;4.68;;;16.90;96.90;;;;;;5036418;28;20029;-60
2021/05/11 15:30:03;;;;;;;4.70;4.22;;;16.90;96.50;;;;;;5036314;28;20076;-60
2021/05/11 15:32:43;;;;;;;5.07;4.57;;;16.90;95.70;;;;;;5040718;28;20099;-60
2021/05/11 15:35:14;;;;;;;5.43;4.35;;;16.90;96.50;;;;;;5034734;28;20152;-60
2021/05/11 15:37:41;;;;;;;4.68;3.97;;;16.80;96.10;;;;;;5037731;28;20056;-60
2021/05/11 15:40:09;;;;;;;5.80;3.88;;;16.70;96.30;;;;;;5037280;28;20128;-60
2021/05/11 15:42:35;;;;;;;5.07;4.03;;;16.70;96.10;;;;;;5032211;28;20045;-60
2021/05/11 15:45:02;;;;;;;4.30;3.90;;;16.70;95.90;;;;;;5038526;28;20411;-61
2021/05/11 15:47:28;;;;;;;4.35;3.83;;;16.70;95.40;;;;;;5036298;28;20032;-60
2021/05/11 15:49:53;;;;;;;4.38;3.85;;;16.80;95.30;;;;;;5038386;28;20136;-59
2021/05/11 15:52:19;;;;;;;5.25;4.20;;;16.70;95.10;;;;;;5033805;28;20632;-60
2021/05/11 15:54:45;;;;;;;4.80;4.30;;;16.90;95.20;;;;;;5040938;28;20529;-60
2021/05/11 15:57:10;;;;;;;5.97;3.60;;;16.90;94.60;;;;;;5034686;28;20402;-60
2021/05/11 15:59:36;;;;;;;4.30;3.80;;;16.80;94.30;;;;;;5038361;28;20064;-60
2021/05/11 16:02:02;;;;;;;4.32;3.92;;;16.80;94.60;;;;;;5038646;28;20086;-60
2021/05/11 16:04:27;;;;;;;4.57;3.45;;;16.90;94.60;;;;;;5043260;28;20500;-59
2021/05/11 16:06:54;;;;;;;5.85;3.95;;;16.90;93.90;;;;;;5040132;28;20037;-59
2021/05/11 16:09:20;;;;;;;5.18;4.40;;;16.90;94.30;;;;;;5036902;28;20041;-59
2021/05/11 16:11:46;;;;;;;6.60;5.57;;;17.00;94.10;;;;;;5041212;28;20509;-59
2021/05/11 16:14:12;;;;;;;5.35;3.78;;;17.00;93.90;;;;;;5039093;28;20042;-60
2021/05/11 16:16:37;;;;;;;6.40;3.42;;;17.00;93.40;;;;;;5051933;28;20056;-59
2021/05/11 16:19:03;;;;;;;4.68;3.78;;;16.90;92.90;;;;;;5046259;28;20514;-59
2021/05/11 16:21:29;;;;;;;5.75;3.53;;;16.90;92.90;;;;;;5044861;28;20049;-59
2021/05/11 16:23:57;;;;;;;3.70;2.88;;;16.80;92.90;;;;;;5039151;28;20162;-60
2021/05/11 16:26:25;;;;;;;2.67;2.47;;;16.90;92.70;;;;;;5044517;28;20037;-59
2021/05/11 16:32:12;;;;;;;3.20;2.90;;;16.90;92.20;;;;;;5013106;28;20040;-60
2021/05/11 16:34:41;;;;;;;4.18;3.17;;;16.90;92.40;;;;;;5043816;28;20033;-59
2021/05/11 16:37:08;;;;;;;4.00;2.90;;;16.90;92.50;;;;;;5036962;28;20111;-60
2021/05/11 16:39:35;;;;;;;3.70;2.55;;;16.90;92.50;;;;;;5037522;28;20056;-60
2021/05/11 16:42:01;;;;;;;4.72;2.88;;;17.00;92.50;;;;;;5053378;28;20056;-59
2021/05/11 16:44:26;;;;;;;3.55;2.70;;;17.00;92.20;;;;;;5039239;28;20724;-60
2021/05/11 16:47:07;;;;;;;7.85;3.05;;;16.90;92.10;;;;;;5048110;28;20041;-60
2021/05/11 16:52:56;;;;;;;2.72;2.53;;;17.00;91.90;;;;;;4984031;28;20095;-60
2021/05/11 16:55:24;;;;;;;3.10;2.80;;;17.00;92.10;;;;;;5043313;28;20033;-60
2021/05/11 16:57:50;;;;;;;3.78;2.80;;;17.00;91.70;;;;;;5042587;28;20403;-60
2021/05/11 17:00:17;;;;;;;4.25;2.97;;;17.00;92.10;;;;;;5037675;28;20033;-60
2021/05/11 17:02:43;;;;;;;3.35;2.90;;;17.00;92.40;;;;;;5038535;28;20044;-60
2021/05/11 17:05:10;;;;;;;3.95;2.97;;;17.10;91.90;;;;;;5037132;28;20042;-60
2021/05/11 17:07:36;;;;;;;2.65;2.45;;;17.00;91.80;;;;;;5039404;28;20128;-61
2021/05/11 17:10:04;;;;;;;2.60;2.20;;;17.00;91.60;;;;;;5033428;28;20037;-60
2021/05/11 17:12:31;;;;;;;5.40;2.30;;;17.00;90.90;;;;;;5056623;28;20029;-60
2021/05/11 17:14:56;;;;;;;2.33;2.13;;;17.10;91.30;;;;;;5031659;28;20054;-60
2021/05/11 17:17:22;;;;;;;4.22;2.45;;;17.10;91.50;;;;;;5039667;28;20164;-61
2021/05/11 17:19:47;;;;;;;3.50;2.45;;;17.10;90.90;;;;;;5034505;28;20056;-59
2021/05/11 17:22:14;;;;;;;3.50;3.20;;;17.10;91.10;;;;;;5038902;28;20039;-61
2021/05/11 17:24:40;;;;;;;2.90;2.58;;;17.10;91.30;;;;;;5035783;28;20053;-60
2021/05/11 17:27:06;;;;;;;6.80;2.63;;;17.10;91.60;;;;;;5037887;28;20065;-61
2021/05/11 17:29:32;;;;;;;2.75;1.75;;;17.10;91.50;;;;;;5037548;28;20034;-60
2021/05/11 17:31:58;;;;;;;2.55;2.35;;;17.10;91.30;;;;;;5040183;28;20041;-58
2021/05/11 17:34:24;;;;;;;2.50;2.30;;;17.10;90.70;;;;;;5044605;28;20068;-59
2021/05/11 17:36:50;;;;;;;3.70;2.20;;;17.00;91.00;;;;;;5037481;28;20437;-61
2021/05/11 17:39:16;;;;;;;2.80;2.28;;;17.00;91.10;;;;;;5040516;28;20033;-61
2021/05/11 17:41:41;;;;;;;4.72;2.65;;;17.00;91.10;;;;;;5039615;28;20033;-61
2021/05/11 17:44:07;;;;;;;3.15;2.33;;;17.00;91.00;;;;;;5039806;28;20494;-61